Archival Weather

NSFA McMurdo Sound

NSFA McMurdo Sound, Antarctica (NZCM)

Report from: Thursday, September 21, 2023 8:55 AM UTC
Current time: Saturday, February 24, 2024 4:32 PM UTC

Current weather – Weather history – Daily summaries
Weather forecast

Temperature-7.3°C (18.9°F)
Wind chill-15.4°C (4.3°F)
Dew point-10.2°C (13.6°F)
Winds 14 kts (7.2 m/s, 16.1 mph) East-Southeast (120°)
Wind gusts 21 kts (10.8 m/s, 24.2 mph)
Visibility6.2 mi. (10 km)
Clouds Ceiling: Overcast 9,500 ft. (2,896 m)
Altimeter28.60 in.Hg (969 mB)
Relative humidity80 %
Density altitude-4,598 ft. (-1,402 m)
Sea-level pressure106.9 kPa (1069 mB, 31.56 in.Hg)
Remarks Fully automated report
Automated weather observing station with precipitation discriminator
Pressure rising, then falling
Flight conditions Visual Meteorological Conditions
Raw dataNZCM 210855Z AUTO 12014G21KT 9999 OVC095 M07/M10 A2860 RMK AO2 SLP689 T10731102 50002
An error has occurred. This application may no longer respond until reloaded. Reload 🗙